Flight Track Log - Related Links

Times and Time Zones

All times are in EDT time to prevent confusion due to time zone crossing. See the ASA10 flight status page for this flight to view local times or setup timezone preferences in your user account.

Time Position Orientation Groundspeed Altitude Reporting Facility
EDT Latitude Longitude Course Direction KTS MPH feet Rate Location/Type
Sun 01:04:11 AM 47.4681 -122.3086 360° North 187 215 1,200  Level Seattle Center
Sun 01:04:41 AM 47.4972 -122.3089 360° North 190 219 2,100 2,214 Climbing Seattle Center
Sun 01:05:35 AM 47.5539 -122.3139 357° North 239 275 4,300 2,465 Climbing Seattle Center
Sun 01:06:50 AM 47.6089 -122.3953 315° West 254 292 7,400 2,382 Climbing Seattle Center
Sun 01:07:51 AM 47.6439 -122.4897 299° West 272 313 9,700 1,785 Climbing Seattle Center
Sun 01:08:51 AM 47.7147 -122.4333 28° Northeast 336 387 11,000 1,785 Climbing Seattle Center
Sun 01:09:52 AM 47.6867 -122.2936 107° East 379 436 13,300 2,281 Climbing Seattle Center
Sun 01:10:52 AM 47.6258 -122.1614 124° Southeast 387 445 15,600 2,182 Climbing Seattle Center
Sun 01:11:53 AM 47.5675 -122.0228 122° Southeast 393 452 17,700 1,884 Climbing Seattle Center
Sun 01:12:53 AM 47.5069 -121.8892 124° Southeast 406 467 19,400 1,835 Climbing Seattle Center
Sun 01:13:54 AM 47.4411 -121.7469 124° Southeast 420 483 21,400 1,835 Climbing Seattle Center
Sun 01:14:54 AM 47.3925 -121.5858 114° Southeast 435 501 23,100 1,600 Climbing Seattle Center
Sun 01:15:54 AM 47.3489 -121.4167 111° Southeast 444 511 24,600 1,438 Climbing Seattle Center
Sun 01:16:55 AM 47.3017 -121.2461 112° Southeast 452 520 26,000 1,339 Climbing Seattle Center
Sun 01:17:55 AM 47.2522 -121.0711 113° Southeast 465 535 27,300 1,339 Climbing Seattle Center
Sun 01:18:56 AM 47.1939 -120.8592 112° Southeast 471 542 28,700 1,388 Climbing Seattle Center
Sun 01:19:56 AM 47.1547 -120.6744 107° East 484 557 30,100 1,140 Climbing Seattle Center
Sun 01:20:57 AM 47.1181 -120.4872 106° East 482 555 31,000 942 Climbing Seattle Center
Sun 01:21:57 AM 47.0794 -120.2972 107° East 486 559 32,000 1,050 Climbing Seattle Center
Sun 01:22:57 AM 47.0422 -120.1078 106° East 485 558 33,100 1,091 Climbing Seattle Center
Sun 01:23:58 AM 47.0017 -119.9208 108° East 483 556 34,200 942 Climbing Seattle Center
Sun 01:24:58 AM 46.9622 -119.7347 107° East 481 554 35,000 347 Climbing Seattle Center
Sun 01:25:59 AM 46.9242 -119.5478 107° East 481 554 34,900  Descending Seattle Center
Sun 01:26:59 AM 46.8844 -119.3625 107° East 480 552 35,000 50 Climbing Seattle Center
Sun 01:28:00 AM 46.8467 -119.1781 107° East 477 549 35,000  Level Seattle Center
Sun 01:29:00 AM 46.8069 -118.9944 107° East 477 549 35,000  Level Seattle Center
Sun 01:30:01 AM 46.7667 -118.8122 108° East 474 545 35,000  Level Seattle Center
Sun 01:31:01 AM 46.7267 -118.6272 107° East 479 551 35,000  Level Seattle Center
Sun 01:32:01 AM 46.6872 -118.4450 107° East 477 549 35,000  Level Seattle Center
Sun 01:33:02 AM 46.6464 -118.2631 108° East 476 548 35,000  Level Seattle Center
Sun 01:34:02 AM 46.6047 -118.0808 108° East 477 549 35,000  Level Seattle Center
Sun 01:35:03 AM 46.5631 -117.8961 108° East 483 556 35,000  Level Seattle Center
Sun 01:36:03 AM 46.5214 -117.7136 108° East 481 554 35,000  Level Seattle Center
Sun 01:37:04 AM 46.4792 -117.5328 109° East 478 550 35,000  Level Seattle Center
Sun 01:38:04 AM 46.4369 -117.3506 109° East 478 550 35,000  Level Seattle Center
Sun 01:39:04 AM 46.3944 -117.1681 109° East 481 554 35,000  Level Seattle Center
Sun 01:40:05 AM 46.3419 -116.9514 109° East 479 551 35,000  Level Seattle Center
Sun 01:41:05 AM 46.2986 -116.7678 109° East 483 556 35,000  Level Seattle Center
Sun 01:42:06 AM 46.2536 -116.5839 109° East 488 562 35,000  Level Seattle Center
Sun 01:43:06 AM 46.2106 -116.4000 109° East 487 560 35,000  Level Seattle Center
Sun 01:44:07 AM 46.1658 -116.2156 109° East 486 559 35,000  Level Seattle Center
Sun 01:45:07 AM 46.1214 -116.0347 109° East 484 557 35,000  Level Seattle Center
Sun 01:45:49 AM 46.0947 -115.9250 109° East 485 558 35,000  Level Salt Lake Center
Sun 01:46:49 AM 46.0433 -115.7231 110° East 483 556 35,000  Level Salt Lake Center
Sun 01:47:50 AM 46.0006 -115.5467 109° East 486 559 35,000  Level Salt Lake Center
Sun 01:48:50 AM 45.9478 -115.3425 110° East 487 560 35,000  Level Salt Lake Center
Sun 01:49:51 AM 45.9014 -115.1653 111° Southeast 492 566 35,000  Level Salt Lake Center
Sun 01:50:51 AM 45.8567 -114.9875 110° East 493 567 35,000  Level Salt Lake Center
Sun 01:51:52 AM 45.8100 -114.8114 111° Southeast 493 567 35,000  Level Salt Lake Center
Sun 01:52:52 AM 45.7564 -114.6069 111° Southeast 492 566 35,000  Level Salt Lake Center
Sun 01:53:53 AM 45.7097 -114.4317 111° Southeast 492 566 35,000  Level Salt Lake Center
Sun 01:54:53 AM 45.6653 -114.2644 111° Southeast 493 567 35,000  Level Salt Lake Center
Sun 01:55:54 AM 45.6161 -114.0817 111° Southeast 494 568 35,000  Level Salt Lake Center
Sun 01:56:54 AM 45.5600 -113.8775 111° Southeast 492 566 35,000  Level Salt Lake Center
Sun 01:57:55 AM 45.5128 -113.7036 111° Southeast 491 565 35,000  Level Salt Lake Center
Sun 01:58:55 AM 45.4636 -113.5258 111° Southeast 489 563 35,000  Level Salt Lake Center
Sun 01:59:56 AM 45.4142 -113.3456 111° Southeast 488 562 35,000  Level Salt Lake Center
Sun 02:00:56 AM 45.3647 -113.1672 111° Southeast 487 560 35,000  Level Salt Lake Center
Sun 02:01:57 AM 45.3131 -112.9828 112° Southeast 487 560 35,000  Level Salt Lake Center
Sun 02:02:57 AM 45.2642 -112.8122 112° Southeast 487 560 35,000  Level Salt Lake Center
Sun 02:03:57 AM 45.2075 -112.6119 112° Southeast 490 564 35,000  Level Salt Lake Center
Sun 02:04:58 AM 45.1592 -112.4403 112° Southeast 490 564 35,000  Level Salt Lake Center
Sun 02:05:58 AM 45.1086 -112.2672 112° Southeast 495 570 35,000  Level Salt Lake Center
Sun 02:06:59 AM 45.0492 -112.0636 112° Southeast 500 575 35,000  Level Salt Lake Center
Sun 02:07:59 AM 44.9978 -111.8897 113° Southeast 501 577 35,000  Level Salt Lake Center
Sun 02:09:00 AM 44.9461 -111.7136 112° Southeast 504 580 35,000  Level Salt Lake Center
Sun 02:10:00 AM 44.8933 -111.5364 113° Southeast 508 585 35,000  Level Salt Lake Center
Sun 02:11:00 AM 44.8322 -111.3308 113° Southeast 505 581 35,000  Level Salt Lake Center
Sun 02:12:01 AM 44.7786 -111.1536 113° Southeast 506 582 35,000  Level Salt Lake Center
Sun 02:13:01 AM 44.7244 -110.9756 113° Southeast 511 588 35,000  Level Salt Lake Center
Sun 02:14:02 AM 44.6706 -110.8000 113° Southeast 509 586 35,000  Level Salt Lake Center
Sun 02:15:02 AM 44.6075 -110.5978 114° Southeast 506 582 35,000  Level Salt Lake Center
Sun 02:16:03 AM 44.5544 -110.4214 113° Southeast 511 588 35,000  Level Salt Lake Center
Sun 02:17:03 AM 44.4994 -110.2475 114° Southeast 510 587 35,000  Level Salt Lake Center
Sun 02:18:03 AM 44.4353 -110.0467 114° Southeast 507 583 35,000  Level Salt Lake Center
Sun 02:19:04 AM 44.3808 -109.8731 114° Southeast 510 587 35,000  Level Salt Lake Center
Sun 02:20:04 AM 44.3258 -109.6989 114° Southeast 511 588 35,000  Level Salt Lake Center
Sun 02:21:05 AM 44.2711 -109.5256 114° Southeast 511 588 35,000  Level Salt Lake Center
Sun 02:22:05 AM 44.2108 -109.3486 115° Southeast 509 586 35,000  Level Salt Lake Center
Sun 02:23:05 AM 44.1519 -109.1717 115° Southeast 507 583 35,000  Level Salt Lake Center
Sun 02:24:06 AM 44.0942 -108.9950 114° Southeast 506 582 35,000  Level Salt Lake Center
Sun 02:25:06 AM 44.0250 -108.7839 114° Southeast 505 581 35,000  Level Salt Lake Center
Sun 02:26:07 AM 43.9658 -108.6092 115° Southeast 504 580 35,000  Level Salt Lake Center
Sun 02:27:07 AM 43.9075 -108.4356 115° Southeast 503 579 35,000  Level Salt Lake Center
Sun 02:28:08 AM 43.8494 -108.2608 115° Southeast 502 578 35,000  Level Salt Lake Center
Sun 02:29:08 AM 43.7900 -108.0844 115° Southeast 508 585 35,000  Level Salt Lake Center
Sun 02:30:08 AM 43.7297 -107.9086 115° Southeast 509 586 35,000  Level Salt Lake Center
Sun 02:31:09 AM 43.6694 -107.7328 115° Southeast 510 587 35,000  Level Salt Lake Center
Sun 02:32:09 AM 43.6072 -107.5567 116° Southeast 513 590 35,000  Level Salt Lake Center
Sun 02:33:10 AM 43.5467 -107.3797 115° Southeast 514 592 35,000  Level Salt Lake Center
Sun 02:34:11 AM 43.4858 -107.2050 116° Southeast 510 587 35,000  Level Salt Lake Center
Sun 02:35:11 AM 43.4242 -107.0294 116° Southeast 512 589 35,000  Level Denver Center
Sun 02:36:11 AM 43.3578 -106.8419 116° Southeast 510 587 35,000  Level Denver Center
Sun 02:37:12 AM 43.2972 -106.6742 116° Southeast 511 588 35,000  Level Denver Center
Sun 02:38:12 AM 43.2375 -106.5067 116° Southeast 513 590 35,000  Level Denver Center
Sun 02:39:12 AM 43.1656 -106.3097 117° Southeast 518 596 35,000  Level Denver Center
Sun 02:40:12 AM 43.1053 -106.1408 116° Southeast 517 595 35,000  Level Denver Center
Sun 02:41:13 AM 43.0425 -105.9731 117° Southeast 518 596 35,000  Level Denver Center
Sun 02:42:13 AM 42.9717 -105.7792 116° Southeast 512 589 35,000  Level Denver Center
Sun 02:43:14 AM 42.9089 -105.6114 117° Southeast 517 595 35,000  Level Denver Center
Sun 02:44:14 AM 42.8469 -105.4458 117° Southeast 514 592 35,000  Level Denver Center
Sun 02:45:14 AM 42.7836 -105.2803 117° Southeast 514 592 35,000  Level Denver Center
Sun 02:46:14 AM 42.7100 -105.0864 117° Southeast 517 595 35,000  Level Denver Center
Sun 02:47:15 AM 42.6469 -104.9211 117° Southeast 515 593 35,000  Level Denver Center
Sun 02:48:15 AM 42.5833 -104.7583 118° Southeast 514 592 35,000  Level Denver Center
Sun 02:49:15 AM 42.5094 -104.5681 118° Southeast 532 612 35,000  Level Denver Center
Sun 02:50:16 AM 42.4475 -104.4050 117° Southeast 522 601 35,000  Level Denver Center
Sun 02:51:16 AM 42.3739 -104.2156 118° Southeast 513 590 35,000  Level Denver Center
Sun 02:52:16 AM 42.3100 -104.0514 118° Southeast 515 593 35,000  Level Denver Center
Sun 02:53:16 AM 42.2450 -103.8878 118° Southeast 516 594 35,000  Level Denver Center
Sun 02:54:17 AM 42.1700 -103.6969 118° Southeast 516 594 35,000  Level Denver Center
Sun 02:55:17 AM 42.1031 -103.5331 119° Southeast 522 601 35,000  Level Denver Center
Sun 02:56:17 AM 42.0383 -103.3694 118° Southeast 517 595 35,000  Level Denver Center
Sun 02:57:30 AM 41.9719 -103.2075 119° Southeast 516 594 35,000  Level Denver Center
Sun 02:58:30 AM 41.8833 -102.9886 118° Southeast 524 603 35,000  Level Denver Center
Sun 02:59:30 AM 41.8167 -102.8272 119° Southeast 517 595 35,000  Level Denver Center
Sun 03:00:31 AM 41.7503 -102.6658 119° Southeast 516 594 35,000  Level Denver Center
Sun 03:01:31 AM 41.6736 -102.4808 119° Southeast 524 603 35,000  Level Denver Center
Sun 03:02:31 AM 41.6061 -102.3211 119° Southeast 517 595 35,000  Level Denver Center
Sun 03:03:32 AM 41.5308 -102.1339 118° Southeast 513 590 35,000  Level Denver Center
Sun 03:04:32 AM 41.4628 -101.9742 120° Southeast 517 595 35,000  Level Denver Center
Sun 03:05:44 AM 41.3944 -101.8150 120° Southeast 516 594 35,000  Level Denver Center
Sun 03:06:45 AM 41.3033 -101.6006 119° Southeast 522 601 35,000  Level Denver Center
Sun 03:07:45 AM 41.2344 -101.4406 120° Southeast 521 600 35,000  Level Denver Center
Sun 03:08:46 AM 41.1661 -101.2806 120° Southeast 521 600 35,000  Level Denver Center
Sun 03:09:46 AM 41.0850 -101.0939 120° Southeast 522 601 35,000  Level Denver Center
Sun 03:10:46 AM 41.0153 -100.9350 120° Southeast 520 598 35,000  Level Denver Center
Sun 03:11:47 AM 40.9467 -100.7750 120° Southeast 516 594 35,000  Level Denver Center
Sun 03:12:47 AM 40.8731 -100.6075 120° Southeast 527 606 35,000  Level Denver Center
Sun 03:13:47 AM 40.8011 -100.4481 121° Southeast 523 602 35,000  Level Denver Center
Sun 03:14:48 AM 40.7186 -100.2644 121° Southeast 520 598 35,000  Level Denver Center
Sun 03:15:48 AM 40.6483 -100.1075 121° Southeast 520 598 35,000  Level Denver Center
Sun 03:16:48 AM 40.5775 -99.9511 121° Southeast 521 600 35,000  Level Denver Center
Sun 03:17:49 AM 40.5061 -99.7956 121° Southeast 520 598 35,000  Level Denver Center
Sun 03:18:49 AM 40.4328 -99.6339 121° Southeast 518 596 35,000  Level Denver Center
Sun 03:19:50 AM 40.3586 -99.4717 121° Southeast 519 597 35,000  Level Denver Center
Sun 03:20:50 AM 40.2847 -99.3108 121° Southeast 519 597 35,000  Level Denver Center
Sun 03:21:50 AM 40.2106 -99.1506 121° Southeast 518 596 35,000  Level Denver Center
Sun 03:22:32 AM 40.1508 -99.0236 122° Southeast 518 596 35,000  Level Minneapolis Center
Sun 03:23:33 AM 40.0764 -98.8628 121° Southeast 520 598 35,000  Level Minneapolis Center
Sun 03:24:33 AM 39.9997 -98.7008 122° Southeast 523 602 35,000  Level Minneapolis Center
Sun 03:25:33 AM 39.9236 -98.5397 122° Southeast 524 603 35,000  Level Minneapolis Center
Sun 03:26:34 AM 39.8472 -98.3783 122° Southeast 524 603 35,000  Level Minneapolis Center
Sun 03:27:34 AM 39.7703 -98.2153 122° Southeast 528 608 35,000  Level Minneapolis Center
Sun 03:28:34 AM 39.6928 -98.0525 122° Southeast 531 611 35,000  Level Minneapolis Center
Sun 03:29:29 AM 39.6178 -97.8953 122° Southeast 527 606 35,000  Level Kansas City Center
Sun 03:30:29 AM 39.5375 -97.7319 122° Southeast 520 598 35,000  Level Kansas City Center
Sun 03:31:30 AM 39.4600 -97.5664 121° Southeast 535 616 35,000  Level Kansas City Center
Sun 03:32:30 AM 39.3839 -97.4189 124° Southeast 519 597 35,000  Level Kansas City Center
Sun 03:33:30 AM 39.3086 -97.2636 122° Southeast 529 609 35,000  Level Kansas City Center
Sun 03:34:30 AM 39.2208 -97.0844 122° Southeast 531 611 35,000  Level Kansas City Center
Sun 03:35:30 AM 39.1439 -96.9306 123° Southeast 533 613 35,000  Level Kansas City Center
Sun 03:36:30 AM 39.0678 -96.7772 123° Southeast 533 613 35,000  Level Kansas City Center
Sun 03:37:30 AM 38.9853 -96.6111 123° Southeast 531 611 35,000  Level Kansas City Center
Sun 03:38:31 AM 38.9019 -96.4469 123° Southeast 532 612 35,000  Level Kansas City Center
Sun 03:39:31 AM 38.8258 -96.2956 123° Southeast 531 611 35,000  Level Kansas City Center
Sun 03:40:31 AM 38.7483 -96.1442 123° Southeast 532 612 35,000  Level Kansas City Center
Sun 03:41:31 AM 38.6567 -95.9667 123° Southeast 533 613 35,000  Level Kansas City Center
Sun 03:42:31 AM 38.5797 -95.8172 123° Southeast 532 612 35,000  Level Kansas City Center
Sun 03:43:32 AM 38.5033 -95.6689 123° Southeast 528 608 35,000  Level Kansas City Center
Sun 03:44:32 AM 38.4258 -95.5194 123° Southeast 529 609 35,000  Level Kansas City Center
Sun 03:45:32 AM 38.3356 -95.3461 124° Southeast 528 608 35,000  Level Kansas City Center
Sun 03:46:32 AM 38.2569 -95.1989 124° Southeast 527 606 35,000  Level Kansas City Center
Sun 03:47:32 AM 38.1797 -95.0475 123° Southeast 530 610 35,000  Level Kansas City Center
Sun 03:48:32 AM 38.0883 -94.8750 124° Southeast 529 609 35,000  Level Kansas City Center
Sun 03:49:33 AM 38.0083 -94.7289 125° Southeast 528 608 35,000  Level Kansas City Center
Sun 03:50:33 AM 37.9314 -94.5797 123° Southeast 529 609 35,000  Level Kansas City Center
Sun 03:51:33 AM 37.8489 -94.4286 125° Southeast 527 606 35,000  Level Kansas City Center
Sun 03:52:33 AM 37.7650 -94.2744 125° Southeast 531 611 35,000  Level Kansas City Center
Sun 03:53:34 AM 37.6817 -94.1203 124° Southeast 532 612 35,000  Level Kansas City Center
Sun 03:54:34 AM 37.5864 -93.9775 130° Southeast 538 619 35,000  Level Kansas City Center
Sun 03:55:34 AM 37.4642 -93.8728 146° Southeast 532 612 35,000  Level Kansas City Center
Sun 03:56:34 AM 37.3750 -93.7214 127° Southeast 541 623 35,000  Level Kansas City Center
Sun 03:57:34 AM 37.2911 -93.5650 124° Southeast 540 621 35,000  Level Kansas City Center
Sun 03:58:35 AM 37.2064 -93.4092 124° Southeast 541 623 35,000  Level Kansas City Center
Sun 03:59:35 AM 37.1219 -93.2542 124° Southeast 540 621 35,000  Level Kansas City Center
Sun 04:00:35 AM 37.0369 -93.0997 125° Southeast 541 623 35,000  Level Kansas City Center
Sun 04:01:35 AM 36.9514 -92.9469 125° Southeast 539 620 35,000  Level Kansas City Center
Sun 04:02:35 AM 36.8664 -92.7944 125° Southeast 537 618 35,000  Level Kansas City Center
Sun 04:03:36 AM 36.7817 -92.6417 125° Southeast 536 617 35,000  Level Kansas City Center
Sun 04:04:36 AM 36.6972 -92.4886 125° Southeast 537 618 35,000  Level Kansas City Center
Sun 04:05:36 AM 36.6114 -92.3372 125° Southeast 537 618 35,000 50 Level Kansas City Center
Sun 04:06:36 AM 36.5133 -92.1631 125° Southeast 537 618 35,100 545 Climbing Kansas City Center
Sun 04:07:37 AM 36.4236 -92.0083 126° Southeast 545 627 36,100 891 Climbing Kansas City Center
Sun 04:08:44 AM 36.3311 -91.8486 126° Southeast 552 635 37,000 425 Climbing Memphis Center
Sun 04:09:44 AM 36.2411 -91.6950 126° Southeast 552 635 37,000  Level Memphis Center
Sun 04:10:44 AM 36.1531 -91.5444 126° Southeast 546 628 37,000  Level Memphis Center
Sun 04:11:44 AM 36.0647 -91.3944 126° Southeast 546 628 37,000  Level Memphis Center
Sun 04:12:44 AM 35.9761 -91.2444 126° Southeast 551 634 37,000  Level Memphis Center
Sun 04:13:44 AM 35.8897 -91.0925 125° Southeast 551 634 37,000  Level Memphis Center
Sun 04:14:44 AM 35.8028 -90.9458 126° Southeast 545 627 37,000  Level Memphis Center
Sun 04:15:44 AM 35.7158 -90.7969 126° Southeast 545 627 37,000  Level Memphis Center
Sun 04:16:44 AM 35.6328 -90.6483 124° Southeast 539 620 37,000  Level Memphis Center
Sun 04:17:44 AM 35.5456 -90.5050 127° Southeast 534 615 37,000  Level Memphis Center
Sun 04:18:44 AM 35.4600 -90.3569 125° Southeast 534 615 37,000  Level Memphis Center
Sun 04:19:44 AM 35.3744 -90.2119 126° Southeast 527 606 37,000  Level Memphis Center
Sun 04:20:44 AM 35.2867 -90.0697 127° Southeast 522 601 37,000  Level Memphis Center
Sun 04:21:44 AM 35.1942 -89.9125 126° Southeast 522 601 37,000  Level Memphis Center
Sun 04:22:44 AM 35.1103 -89.7708 126° Southeast 522 601 37,000  Level Memphis Center
Sun 04:23:44 AM 35.0261 -89.6267 125° Southeast 527 606 37,000  Level Memphis Center
Sun 04:24:44 AM 34.9353 -89.4858 128° Southeast 527 606 37,000  Level Memphis Center
Sun 04:25:44 AM 34.8572 -89.3625 128° Southeast 527 606 37,000  Level Memphis Center
Sun 04:26:44 AM 34.7706 -89.2219 127° Southeast 519 597 37,000  Level Memphis Center
Sun 04:27:44 AM 34.6858 -89.0867 127° Southeast 512 589 37,000  Level Memphis Center
Sun 04:28:44 AM 34.6008 -88.9517 127° Southeast 512 589 37,000  Level Memphis Center
Sun 04:29:44 AM 34.5114 -88.8094 127° Southeast 505 581 37,000  Level Memphis Center
Sun 04:30:44 AM 34.4264 -88.6778 128° Southeast 500 575 37,000  Level Memphis Center
Sun 04:31:44 AM 34.3450 -88.5433 126° Southeast 500 575 37,000  Level Memphis Center
Sun 04:32:44 AM 34.2619 -88.4169 128° Southeast 494 568 37,000  Level Memphis Center
Sun 04:33:44 AM 34.1783 -88.2858 128° Southeast 494 568 37,000  Level Memphis Center
Sun 04:34:44 AM 34.0967 -88.1497 126° Southeast 489 563 37,000  Level Memphis Center
Sun 04:36:42 AM 33.9339 -87.9044 129° Southeast 477 549 37,000  Level Atlanta Center
Sun 04:37:42 AM 33.8503 -87.7731 127° Southeast 483 556 37,000  Level Atlanta Center
Sun 04:38:42 AM 33.7686 -87.6447 127° Southeast 483 556 37,000  Level Atlanta Center
Sun 04:39:42 AM 33.6867 -87.5189 128° Southeast 483 556 37,000  Level Atlanta Center
Sun 04:40:42 AM 33.6047 -87.3883 127° Southeast 483 556 37,000  Level Atlanta Center
Sun 04:41:42 AM 33.5225 -87.2631 128° Southeast 483 556 37,000  Level Atlanta Center
Sun 04:42:42 AM 33.4422 -87.1381 128° Southeast 478 550 37,000  Level Atlanta Center
Sun 04:43:42 AM 33.3578 -87.0108 128° Southeast 478 550 37,000  Level Atlanta Center
Sun 04:44:42 AM 33.2872 -86.9017 128° Southeast 478 550 37,000  Level Atlanta Center
Sun 04:45:42 AM 33.2067 -86.7747 127° Southeast 478 550 37,000  Level Atlanta Center
Sun 04:46:42 AM 33.1197 -86.6456 129° Southeast 478 550 37,000  Level Atlanta Center
Sun 04:47:42 AM 33.0367 -86.5192 128° Southeast 483 556 37,000  Level Atlanta Center
Sun 04:48:42 AM 32.9494 -86.3956 130° Southeast 483 556 37,000  Level Atlanta Center
Sun 04:49:42 AM 32.8683 -86.2672 127° Southeast 483 556 37,000  Level Atlanta Center
Sun 04:50:42 AM 32.7847 -86.1439 129° Southeast 478 550 37,000  Level Atlanta Center
Sun 04:51:42 AM 32.7014 -86.0186 128° Southeast 478 550 37,000  Level Atlanta Center
Sun 04:52:42 AM 32.6197 -85.8983 129° Southeast 478 550 37,000  Level Atlanta Center
Sun 04:53:42 AM 32.5358 -85.7733 129° Southeast 478 550 37,000  Level Atlanta Center
Sun 04:54:42 AM 32.4439 -85.6411 129° Southeast 478 550 37,000  Level Atlanta Center
Sun 04:55:42 AM 32.3597 -85.5217 130° Southeast 478 550 37,000  Level Atlanta Center
Sun 04:56:42 AM 32.2775 -85.3997 129° Southeast 478 550 37,000  Level Atlanta Center
Sun 04:57:42 AM 32.1953 -85.2833 130° Southeast 478 550 37,000  Level Atlanta Center
Sun 04:59:21 AM 32.0681 -85.0989 129° Southeast 465 535 37,000  Level Jacksonville Center
Sun 05:00:21 AM 31.9864 -84.9794 129° Southeast 465 535 37,000  Level Jacksonville Center
Sun 05:01:21 AM 31.9006 -84.8625 131° Southeast 465 535 37,000  Level Jacksonville Center
Sun 05:02:21 AM 31.8169 -84.7386 128° Southeast 460 529 37,000  Level Jacksonville Center
Sun 05:03:21 AM 31.7286 -84.6317 134° Southeast 455 524 37,000  Level Jacksonville Center
Sun 05:04:21 AM 31.6297 -84.5322 139° Southeast 455 524 37,000  Level Jacksonville Center
Sun 05:05:21 AM 31.5350 -84.4306 138° Southeast 465 535 37,000  Level Jacksonville Center
Sun 05:06:21 AM 31.4381 -84.3317 139° Southeast 465 535 37,000  Level Jacksonville Center
Sun 05:07:21 AM 31.3411 -84.2281 138° Southeast 465 535 37,000  Level Jacksonville Center
Sun 05:08:21 AM 31.2461 -84.1269 138° Southeast 465 535 37,000  Level Jacksonville Center
Sun 05:09:21 AM 31.1531 -84.0261 137° Southeast 465 535 37,000  Level Jacksonville Center
Sun 05:10:21 AM 31.0558 -83.9256 138° Southeast 465 535 37,000  Level Jacksonville Center
Sun 05:11:21 AM 30.9606 -83.8206 137° Southeast 465 535 37,000  Level Jacksonville Center
Sun 05:12:21 AM 30.8653 -83.7178 137° Southeast 465 535 37,000  Level Jacksonville Center
Sun 05:13:21 AM 30.7678 -83.6178 139° Southeast 465 535 37,000  Level Jacksonville Center
Sun 05:14:21 AM 30.6783 -83.5158 136° Southeast 460 529 37,000  Level Jacksonville Center
Sun 05:15:21 AM 30.5808 -83.4161 139° Southeast 460 529 37,000  Level Jacksonville Center
Sun 05:16:21 AM 30.4850 -83.3144 138° Southeast 466 536 37,000  Level Jacksonville Center
Sun 05:17:21 AM 30.3914 -83.2153 138° Southeast 466 536 37,000  Level Jacksonville Center
Sun 05:18:21 AM 30.2956 -83.1164 138° Southeast 461 531 37,000  Level Jacksonville Center
Sun 05:19:21 AM 30.2039 -83.0200 138° Southeast 461 531 37,000 -150 Level Jacksonville Center
Sun 05:20:21 AM 30.1100 -82.9214 138° Southeast 461 531 36,700 -1,450 Descending Jacksonville Center
Sun 05:21:21 AM 30.0139 -82.8303 141° Southeast 461 531 34,100 -2,700 Descending Jacksonville Center
Sun 05:22:21 AM 29.9197 -82.7344 139° Southeast 461 531 31,300 -2,550 Descending Jacksonville Center
Sun 05:23:21 AM 29.8278 -82.6317 136° Southeast 461 531 29,000 -2,100 Descending Jacksonville Center
Sun 05:24:21 AM 29.7442 -82.5481 139° Southeast 456 525 27,100 -2,050 Descending Jacksonville Center
Sun 05:25:21 AM 29.6542 -82.4528 137° Southeast 446 513 24,900 -2,200 Descending Jacksonville Center
Sun 05:26:21 AM 29.5639 -82.3625 139° Southeast 438 504 22,700 -2,150 Descending Jacksonville Center
Sun 05:27:21 AM 29.4800 -82.2794 139° Southeast 421 484 20,600 -2,100 Descending Jacksonville Center
Sun 05:28:21 AM 29.3983 -82.1964 138° Southeast 407 468 18,500 -2,550 Descending Jacksonville Center
Sun 05:29:21 AM 29.3206 -82.1136 137° Southeast 394 453 15,500 -2,700 Descending Jacksonville Center
Sun 05:30:21 AM 29.2450 -82.0406 140° Southeast 374 430 13,100 -2,000 Descending Jacksonville Center
Sun 05:31:21 AM 29.1756 -81.9697 138° Southeast 358 412 11,500 -1,100 Descending Jacksonville Center
Sun 05:32:21 AM 29.1103 -81.9064 140° Southeast 326 375 10,900 -300 Descending Jacksonville Center
Sun 05:33:21 AM 29.0494 -81.8450 139° Southeast 308 354 10,900  Level Jacksonville Center
Sun 05:34:21 AM 28.9903 -81.7817 137° Southeast 298 343 10,900 -200 Level Jacksonville Center
Sun 05:35:21 AM 28.9272 -81.7206 140° Southeast 298 343 10,500 -950 Descending Jacksonville Center
Sun 05:36:21 AM 28.8661 -81.6597 139° Southeast 298 343 9,000 -1,548 Descending Jacksonville Center
Sun 05:36:54 AM 28.8333 -81.6167 131° Southeast 289 333 8,100 -1,419 Descending Orlando TRACON
Sun 05:37:54 AM 28.7667 -81.5667 147° Southeast 278 320 6,800 -1,550 Descending Orlando TRACON
Sun 05:38:54 AM 28.7167 -81.5000 131° Southeast 271 312 5,000 -1,400 Descending Orlando TRACON
Sun 05:39:54 AM 28.6667 -81.4500 139° Southeast 252 290 4,000 -700 Descending Orlando TRACON
Sun 05:40:54 AM 28.6167 -81.4000 139° Southeast 199 229 3,600 -500 Descending Orlando TRACON
Sun 05:41:54 AM 28.5833 -81.3500 127° Southeast 184 212 3,000 -750 Descending Orlando TRACON
Sun 05:42:54 AM 28.5500 -81.3167 139° Southeast 158 182 2,100 -900 Descending Orlando TRACON
Sun 05:43:54 AM 28.5000 -81.3167 180° South 157 181 1,200 -900 Descending Orlando TRACON
Sun 05:44:54 AM 28.4667 -81.3167 180° South 159 183 300 -900 Descending Orlando TRACON
Sun 05:46:00 AM 28.4294 -81.3090 139° Southeast  Level Estimated
Sun 05:53:00 AM 28.4294 -81.3090 139° Southeast  Level Estimated
Sun 05:54:00 AM 28.4294 -81.3090 139° Southeast  Level Estimated
Sun 05:55:00 AM 28.4294 -81.3090 139° Southeast  Level Estimated
Sun 05:56:00 AM 28.4294 -81.3090 139° Southeast  Level Estimated

Login

Don't have an account? Register now (free) for customized features, flight alerts, and more!